createdAt,value
2023-02-27T00:01:00.827Z,100.00
2023-02-27T00:03:29.232Z,100.00
2023-02-27T00:05:57.724Z,100.00
2023-02-27T00:08:27.431Z,100.00
2023-02-27T00:10:55.669Z,100.00
2023-02-27T00:13:23.878Z,100.00
2023-02-27T00:15:52.121Z,99.45
2023-02-27T00:18:20.375Z,100.00
2023-02-27T00:20:48.980Z,100.00
2023-02-27T00:23:17.281Z,100.00
2023-02-27T00:25:46.903Z,100.00
2023-02-27T00:28:15.105Z,100.00
2023-02-27T00:30:43.384Z,100.00
2023-02-27T00:33:11.664Z,100.00
2023-02-27T00:35:39.975Z,100.00
2023-02-27T00:38:08.216Z,100.00
2023-02-27T00:40:36.441Z,100.00
2023-02-27T00:43:06.198Z,100.00
2023-02-27T00:45:34.433Z,100.00
2023-02-27T00:48:02.710Z,100.00
2023-02-27T00:50:30.937Z,100.00
2023-02-27T00:52:59.162Z,100.00
2023-02-27T00:55:27.590Z,100.00
2023-02-27T00:57:55.856Z,100.00
2023-02-27T01:00:25.797Z,100.00
2023-02-27T01:02:54.144Z,100.00
2023-02-27T01:05:22.580Z,100.00
2023-02-27T01:07:50.980Z,100.00
2023-02-27T01:10:19.373Z,100.00
2023-02-27T01:12:47.628Z,100.00
2023-02-27T01:15:16.106Z,100.00
2023-02-27T01:17:47.924Z,98.51
2023-02-27T01:20:16.239Z,98.17
2023-02-27T01:22:44.475Z,100.00
2023-02-27T01:25:12.678Z,100.00
2023-02-27T01:27:40.944Z,97.86
2023-02-27T01:30:11.500Z,100.00
2023-02-27T01:32:39.662Z,100.00
2023-02-27T01:35:09.769Z,99.39
2023-02-27T01:37:38.151Z,100.00
2023-02-27T01:40:08.362Z,99.57
2023-02-27T01:42:36.929Z,100.00
2023-02-27T01:45:26.180Z,97.47
2023-02-27T01:47:56.907Z,100.00
2023-02-27T01:50:26.773Z,100.00
2023-02-27T01:52:58.819Z,100.00
2023-02-27T01:55:29.305Z,100.00
2023-02-27T01:57:57.368Z,100.00
2023-02-27T02:00:26.597Z,100.00
2023-02-27T02:02:59.868Z,100.00
2023-02-27T02:05:31.295Z,100.00
2023-02-27T02:07:59.975Z,99.68
2023-02-27T02:10:28.903Z,98.42
2023-02-27T02:12:57.458Z,100.00
2023-02-27T02:15:31.992Z,100.00
2023-02-27T02:18:10.720Z,100.00
2023-02-27T02:21:07.630Z,100.00
2023-02-27T02:24:20.417Z,100.00
2023-02-27T02:27:09.892Z,100.00
2023-02-27T02:30:08.829Z,100.00
2023-02-27T02:33:13.657Z,100.00
2023-02-27T02:36:29.324Z,100.00
2023-02-27T02:39:19.783Z,97.13
2023-02-27T02:41:59.746Z,100.00
2023-02-27T02:44:35.234Z,96.05
2023-02-27T02:47:07.128Z,100.00
2023-02-27T02:49:42.818Z,96.96
2023-02-27T02:52:15.737Z,98.63
2023-02-27T02:54:49.324Z,99.10
2023-02-27T02:57:21.031Z,96.24
2023-02-27T02:59:54.058Z,98.19
2023-02-27T03:02:25.318Z,98.84
2023-02-27T03:04:57.374Z,98.70
2023-02-27T03:07:29.782Z,97.40
2023-02-27T03:10:03.497Z,99.46
2023-02-27T03:12:32.934Z,96.82
2023-02-27T03:15:05.073Z,96.88
2023-02-27T03:17:39.553Z,93.03
2023-02-27T03:20:10.567Z,99.07
2023-02-27T03:22:41.333Z,93.87
2023-02-27T03:25:12.135Z,92.87
2023-02-27T03:27:45.360Z,92.08
2023-02-27T03:30:18.254Z,95.80
2023-02-27T03:32:49.565Z,93.64
2023-02-27T03:35:17.944Z,93.77
2023-02-27T03:37:52.506Z,92.76
2023-02-27T03:40:30.474Z,98.36
2023-02-27T03:43:03.023Z,92.87
2023-02-27T03:45:36.170Z,91.44
2023-02-27T03:48:06.445Z,94.85
2023-02-27T03:50:35.002Z,96.02
2023-02-27T03:53:04.990Z,93.81
2023-02-27T03:55:37.553Z,91.29
2023-02-27T03:58:06.349Z,92.75
2023-02-27T04:00:35.281Z,90.40
2023-02-27T04:03:03.632Z,84.59
2023-02-27T04:05:32.125Z,89.27
2023-02-27T04:08:26.256Z,94.89
2023-02-27T04:11:07.748Z,97.24
2023-02-27T04:13:48.789Z,97.45
2023-02-27T04:16:41.568Z,98.19
2023-02-27T04:19:17.938Z,96.94
2023-02-27T04:21:51.843Z,97.26
2023-02-27T04:24:27.087Z,94.67
2023-02-27T04:26:59.989Z,97.14
2023-02-27T04:29:34.912Z,100.00
2023-02-27T04:32:06.363Z,95.59
2023-02-27T04:34:39.475Z,95.73
2023-02-27T04:37:09.805Z,96.86
2023-02-27T04:39:42.646Z,99.09
2023-02-27T04:42:14.970Z,99.51
2023-02-27T04:44:44.097Z,96.24
2023-02-27T04:47:13.798Z,93.96
2023-02-27T04:49:45.337Z,93.29
2023-02-27T04:52:16.034Z,95.54
2023-02-27T04:54:47.809Z,96.16
2023-02-27T04:57:20.429Z,95.82
2023-02-27T04:59:52.284Z,94.96
2023-02-27T05:02:25.050Z,98.51
2023-02-27T05:04:56.916Z,95.43
2023-02-27T05:07:28.420Z,98.27
2023-02-27T05:10:00.287Z,96.67
2023-02-27T05:12:33.854Z,98.25
2023-02-27T05:15:05.754Z,97.95
2023-02-27T05:17:37.318Z,100.00
2023-02-27T05:20:07.118Z,100.00
2023-02-27T05:22:39.154Z,98.26
2023-02-27T05:25:12.169Z,100.00
2023-02-27T05:27:47.208Z,100.00
2023-02-27T05:30:19.329Z,97.42
2023-02-27T05:32:53.517Z,100.00
2023-02-27T05:35:27.459Z,100.00
2023-02-27T05:38:03.658Z,100.00
2023-02-27T05:40:34.448Z,93.08
2023-02-27T05:43:07.549Z,100.00
2023-02-27T05:45:38.924Z,98.98
2023-02-27T05:48:09.679Z,99.84
2023-02-27T05:50:39.383Z,100.00
2023-02-27T05:53:11.153Z,100.00
2023-02-27T05:55:40.624Z,100.00
2023-02-27T05:58:14.922Z,100.00
2023-02-27T06:00:45.711Z,100.00
2023-02-27T06:03:14.366Z,95.69
2023-02-27T06:05:43.562Z,100.00
2023-02-27T06:08:12.373Z,100.00
2023-02-27T06:10:40.838Z,100.00
2023-02-27T06:13:09.103Z,100.00
2023-02-27T06:15:38.843Z,100.00
2023-02-27T06:18:07.229Z,100.00
2023-02-27T06:20:35.594Z,100.00
2023-02-27T06:23:03.854Z,100.00
2023-02-27T06:25:32.236Z,100.00
2023-02-27T06:28:00.700Z,100.00
2023-02-27T06:30:29.279Z,94.84
2023-02-27T06:32:59.889Z,92.49
2023-02-27T06:35:29.255Z,92.46
2023-02-27T06:37:57.669Z,95.50
2023-02-27T06:40:26.717Z,92.40
2023-02-27T06:42:54.997Z,95.79
2023-02-27T06:45:24.227Z,94.06
2023-02-27T06:47:52.755Z,93.55
2023-02-27T06:50:22.394Z,93.95
2023-02-27T06:52:50.751Z,94.06
2023-02-27T06:55:22.568Z,93.24
2023-02-27T06:57:50.869Z,92.46
2023-02-27T07:00:19.926Z,91.66
2023-02-27T07:02:48.193Z,91.86
2023-02-27T07:05:16.445Z,86.35
2023-02-27T07:07:46.034Z,92.62
2023-02-27T07:10:15.050Z,92.99
2023-02-27T07:12:43.311Z,88.92
2023-02-27T07:15:12.487Z,92.17
2023-02-27T07:17:40.793Z,94.10
2023-02-27T07:20:11.632Z,90.98
2023-02-27T07:22:40.168Z,96.03
2023-02-27T07:25:10.899Z,89.70
2023-02-27T07:27:39.253Z,92.84
2023-02-27T07:30:08.842Z,85.46
2023-02-27T07:32:37.085Z,83.97
2023-02-27T07:35:05.916Z,87.55
2023-02-27T07:37:34.195Z,81.30
2023-02-27T07:40:02.453Z,83.18
2023-02-27T07:42:32.362Z,85.41
2023-02-27T07:45:01.285Z,87.08
2023-02-27T07:47:30.906Z,81.70
2023-02-27T07:49:59.113Z,86.46
2023-02-27T07:52:27.364Z,88.53
2023-02-27T07:54:55.557Z,85.27
2023-02-27T07:57:23.832Z,85.61
2023-02-27T07:59:53.393Z,81.91
2023-02-27T08:02:21.613Z,86.13
2023-02-27T08:04:49.945Z,80.86
2023-02-27T08:07:18.318Z,76.69
2023-02-27T08:09:46.581Z,79.69
2023-02-27T08:12:14.829Z,75.86
2023-02-27T08:14:43.073Z,79.16
2023-02-27T08:17:12.729Z,75.20
2023-02-27T08:19:41.424Z,79.36
2023-02-27T08:22:09.643Z,77.18
2023-02-27T08:24:38.565Z,74.17
2023-02-27T08:27:06.806Z,74.67
2023-02-27T08:29:35.215Z,72.22
2023-02-27T08:32:04.795Z,70.08
2023-02-27T08:34:34.410Z,70.89
2023-02-27T08:37:02.607Z,70.35
2023-02-27T08:39:30.822Z,69.75
2023-02-27T08:41:59.103Z,69.92
2023-02-27T08:44:27.429Z,71.18
2023-02-27T08:46:55.754Z,69.92
2023-02-27T08:49:25.395Z,66.91
2023-02-27T08:51:55.411Z,64.86
2023-02-27T08:54:23.648Z,64.51
2023-02-27T08:56:51.850Z,67.74
2023-02-27T08:59:20.087Z,64.70
2023-02-27T09:01:48.774Z,61.85
2023-02-27T09:04:17.226Z,60.76
2023-02-27T09:06:45.469Z,58.95
2023-02-27T09:09:15.522Z,58.50
2023-02-27T09:11:46.178Z,59.43
2023-02-27T09:14:14.239Z,57.75
2023-02-27T09:16:42.464Z,57.36
2023-02-27T09:19:10.762Z,58.69
2023-02-27T09:21:39.056Z,57.61
2023-02-27T09:24:19.143Z,54.71
2023-02-27T09:26:50.149Z,58.50
2023-02-27T09:29:18.593Z,59.04
2023-02-27T09:31:47.125Z,56.75
2023-02-27T09:34:15.437Z,58.09
2023-02-27T09:36:43.743Z,56.31
2023-02-27T09:39:12.033Z,55.69
2023-02-27T09:41:51.898Z,55.67
2023-02-27T09:44:43.423Z,54.99
2023-02-27T09:47:15.891Z,54.91
2023-02-27T09:49:51.335Z,56.07
2023-02-27T09:52:19.749Z,57.02
2023-02-27T09:54:47.976Z,53.67
2023-02-27T09:57:20.893Z,53.09
2023-02-27T09:59:52.821Z,52.75
2023-02-27T10:02:32.240Z,52.08
2023-02-27T10:05:04.584Z,52.46
2023-02-27T10:07:38.554Z,51.13
2023-02-27T10:10:16.941Z,51.43
2023-02-27T10:13:00.371Z,51.55
2023-02-27T10:15:30.445Z,50.32
2023-02-27T10:18:09.938Z,50.91
2023-02-27T10:20:54.663Z,50.05
2023-02-27T10:23:26.507Z,51.17
2023-02-27T10:25:55.080Z,51.77
2023-02-27T10:28:24.799Z,50.41
2023-02-27T10:30:55.470Z,50.38
2023-02-27T10:33:28.326Z,50.82
2023-02-27T10:35:57.854Z,51.31
2023-02-27T10:38:31.404Z,50.00
2023-02-27T10:41:00.402Z,49.46
2023-02-27T10:43:30.190Z,49.80
2023-02-27T10:46:02.198Z,50.58
2023-02-27T10:48:33.027Z,50.37
2023-02-27T10:51:23.540Z,49.96
2023-02-27T10:53:53.665Z,50.09
2023-02-27T10:56:26.941Z,49.44
2023-02-27T10:59:07.844Z,48.62
2023-02-27T11:01:42.441Z,49.24
2023-02-27T11:04:12.205Z,49.02
2023-02-27T11:06:41.632Z,48.92
2023-02-27T11:09:13.582Z,48.76
2023-02-27T11:11:42.066Z,48.37
2023-02-27T11:14:26.049Z,49.14
2023-02-27T11:16:56.059Z,48.27
2023-02-27T11:19:33.314Z,48.86
2023-02-27T11:22:06.737Z,48.00
2023-02-27T11:24:35.434Z,48.46
2023-02-27T11:27:05.498Z,47.59
2023-02-27T11:29:36.097Z,47.57
2023-02-27T11:32:04.895Z,47.47
2023-02-27T11:34:36.307Z,47.68
2023-02-27T11:37:06.824Z,47.61
2023-02-27T11:39:37.750Z,47.36
2023-02-27T11:42:17.343Z,47.68
2023-02-27T11:44:56.921Z,46.14
2023-02-27T11:47:28.847Z,46.76
2023-02-27T11:50:26.890Z,45.74
2023-02-27T11:53:00.020Z,44.89
2023-02-27T11:55:29.304Z,45.69
2023-02-27T11:58:03.803Z,45.96
2023-02-27T12:00:38.904Z,45.29
2023-02-27T12:03:15.392Z,46.45
2023-02-27T12:05:45.837Z,45.44
2023-02-27T12:08:18.571Z,43.86
2023-02-27T12:10:49.849Z,44.64
2023-02-27T12:13:22.339Z,43.43
2023-02-27T12:15:57.004Z,44.05
2023-02-27T12:18:29.041Z,43.63
2023-02-27T12:21:00.703Z,43.18
2023-02-27T12:23:34.856Z,43.35
2023-02-27T12:26:07.258Z,44.05
2023-02-27T12:28:51.308Z,44.59
2023-02-27T12:31:33.424Z,45.53
2023-02-27T12:34:05.976Z,45.01
2023-02-27T12:36:34.236Z,44.65
2023-02-27T12:39:04.468Z,43.56
2023-02-27T12:41:43.913Z,43.72
2023-02-27T12:44:24.417Z,44.15
2023-02-27T12:47:00.931Z,45.00
2023-02-27T12:49:39.582Z,44.41
2023-02-27T12:52:17.134Z,43.45
2023-02-27T12:54:57.027Z,43.60
2023-02-27T12:57:44.662Z,43.23
2023-02-27T13:00:16.032Z,43.76
2023-02-27T13:02:58.185Z,43.38
2023-02-27T13:05:44.463Z,42.97
2023-02-27T13:08:22.538Z,43.46
2023-02-27T13:10:55.475Z,43.30
2023-02-27T13:13:28.391Z,44.06
2023-02-27T13:15:59.501Z,44.63
2023-02-27T13:18:33.640Z,44.30
2023-02-27T13:21:08.547Z,45.33
2023-02-27T13:23:47.746Z,45.36
2023-02-27T13:26:20.280Z,45.38
2023-02-27T13:28:49.021Z,45.10
2023-02-27T13:31:28.614Z,45.42
2023-02-27T13:34:06.834Z,44.54
2023-02-27T13:36:40.120Z,43.15
2023-02-27T13:39:43.773Z,43.75
2023-02-27T13:42:49.438Z,43.33
2023-02-27T13:45:49.820Z,42.44
2023-02-27T13:48:46.828Z,43.61
2023-02-27T13:51:46.427Z,43.16
2023-02-27T13:54:23.501Z,42.89
2023-02-27T13:57:06.978Z,42.98
2023-02-27T13:59:36.660Z,43.33
2023-02-27T14:02:07.828Z,42.93
2023-02-27T14:04:39.533Z,43.08
2023-02-27T14:07:12.514Z,43.16
2023-02-27T14:09:42.235Z,44.41
2023-02-27T14:12:42.536Z,43.28
2023-02-27T14:15:53.383Z,43.13
2023-02-27T14:18:53.403Z,43.76
2023-02-27T14:21:57.335Z,43.36
2023-02-27T14:24:29.796Z,43.53
2023-02-27T14:26:58.112Z,42.80
2023-02-27T14:29:31.068Z,42.57
2023-02-27T14:32:04.027Z,43.14
2023-02-27T14:34:32.522Z,43.19
2023-02-27T14:37:02.608Z,42.95
2023-02-27T14:39:32.290Z,42.87
2023-02-27T14:42:20.869Z,43.64
2023-02-27T14:44:49.903Z,43.14
2023-02-27T14:47:30.410Z,43.79
2023-02-27T14:49:58.835Z,43.15
2023-02-27T14:52:29.723Z,44.17
2023-02-27T14:55:14.012Z,43.61
2023-02-27T14:57:52.864Z,44.24
2023-02-27T15:00:36.301Z,44.10
2023-02-27T15:03:20.112Z,44.37
2023-02-27T15:05:49.151Z,45.03
2023-02-27T15:08:19.685Z,45.25
2023-02-27T15:10:48.361Z,44.77
2023-02-27T15:13:24.116Z,45.28
2023-02-27T15:15:56.951Z,44.94
2023-02-27T15:18:28.210Z,44.22
2023-02-27T15:20:59.878Z,45.43
2023-02-27T15:23:29.554Z,45.59
2023-02-27T15:25:58.611Z,45.23
2023-02-27T15:28:30.612Z,45.46
2023-02-27T15:30:58.985Z,45.26
2023-02-27T15:33:30.878Z,45.86
2023-02-27T15:35:59.750Z,45.59
2023-02-27T15:38:29.841Z,45.26
2023-02-27T15:40:58.936Z,44.93
2023-02-27T15:43:28.298Z,45.36
2023-02-27T15:45:58.305Z,45.22
2023-02-27T15:48:26.898Z,44.72
2023-02-27T15:50:59.296Z,45.83
2023-02-27T15:53:28.919Z,45.16
2023-02-27T15:55:58.780Z,45.13
2023-02-27T15:58:29.395Z,45.12
2023-02-27T16:01:00.730Z,45.79
2023-02-27T16:06:05.015Z,46.97
2023-02-27T16:08:33.149Z,46.50
2023-02-27T16:11:02.441Z,45.90
2023-02-27T16:13:35.797Z,46.58
2023-02-27T16:16:06.949Z,46.73
2023-02-27T16:18:37.823Z,46.02
2023-02-27T16:21:12.487Z,46.47
2023-02-27T16:23:41.195Z,46.48
2023-02-27T16:26:31.833Z,47.28
2023-02-27T16:29:02.697Z,47.35
2023-02-27T16:31:32.211Z,48.83
2023-02-27T16:34:02.127Z,49.12
2023-02-27T16:36:33.496Z,47.87
2023-02-27T16:39:01.725Z,48.37
2023-02-27T16:41:29.991Z,48.24
2023-02-27T16:43:58.360Z,48.23
2023-02-27T16:46:26.839Z,48.29
2023-02-27T16:48:57.182Z,48.20
2023-02-27T16:51:27.599Z,48.74
2023-02-27T16:53:57.914Z,47.87
2023-02-27T16:56:37.607Z,49.15
2023-02-27T16:59:06.800Z,47.52
2023-02-27T17:01:35.127Z,49.00
2023-02-27T17:04:13.407Z,48.63
2023-02-27T17:06:44.940Z,49.21
2023-02-27T17:09:14.584Z,49.56
2023-02-27T17:11:42.862Z,50.88
2023-02-27T17:14:11.154Z,50.28
2023-02-27T17:16:39.425Z,50.03
2023-02-27T17:19:08.317Z,51.58
2023-02-27T17:21:36.568Z,51.17
2023-02-27T17:24:06.165Z,52.57
2023-02-27T17:26:36.142Z,53.19
2023-02-27T17:29:05.370Z,53.75
2023-02-27T17:31:33.653Z,54.52
2023-02-27T17:34:03.587Z,53.13
2023-02-27T17:36:31.817Z,53.65
2023-02-27T17:39:00.668Z,54.60
2023-02-27T17:41:29.742Z,54.82
2023-02-27T17:44:01.678Z,54.94
2023-02-27T17:46:31.680Z,54.07
2023-02-27T17:49:01.070Z,55.20
2023-02-27T17:51:30.056Z,55.33
2023-02-27T17:53:58.850Z,54.69
2023-02-27T17:56:27.402Z,53.38
2023-02-27T17:58:57.662Z,54.21
2023-02-27T18:01:28.990Z,55.40
2023-02-27T18:03:57.413Z,54.15
2023-02-27T18:06:26.193Z,55.16
2023-02-27T18:21:00.748Z,53.63
2023-02-27T18:23:29.237Z,53.75
2023-02-27T18:25:58.074Z,53.37
2023-02-27T18:28:26.926Z,53.22
2023-02-27T18:30:55.298Z,53.80
2023-02-27T18:33:24.060Z,54.66
2023-02-27T18:35:53.713Z,56.92
2023-02-27T18:38:21.986Z,59.71
2023-02-27T18:40:50.297Z,63.02
2023-02-27T18:43:18.557Z,63.20
2023-02-27T18:45:46.876Z,59.70
2023-02-27T18:48:16.011Z,64.89
2023-02-27T18:50:44.276Z,66.00
2023-02-27T18:53:13.924Z,64.39
2023-02-27T18:55:42.160Z,68.04
2023-02-27T18:58:10.352Z,68.33
2023-02-27T19:00:38.635Z,69.11
2023-02-27T19:03:07.034Z,65.76
2023-02-27T19:05:41.181Z,67.99
2023-02-27T19:08:09.388Z,65.38
2023-02-27T19:10:40.338Z,65.26
2023-02-27T19:13:09.598Z,61.80
2023-02-27T19:15:37.846Z,60.12
2023-02-27T19:18:06.804Z,57.49
2023-02-27T19:20:35.761Z,59.60
2023-02-27T19:23:03.975Z,62.08
2023-02-27T19:25:32.827Z,62.97
2023-02-27T19:28:02.642Z,62.36
2023-02-27T19:30:30.878Z,63.15
2023-02-27T19:32:59.204Z,64.22
2023-02-27T19:35:28.545Z,62.27
2023-02-27T19:37:58.126Z,62.61
2023-02-27T19:40:28.218Z,61.37
2023-02-27T19:42:57.177Z,60.35
2023-02-27T19:45:26.812Z,58.37
2023-02-27T19:47:55.030Z,58.87
2023-02-27T19:50:23.292Z,56.67
2023-02-27T19:52:51.929Z,56.51
2023-02-27T19:55:20.482Z,56.04
2023-02-27T19:57:48.732Z,56.33
2023-02-27T20:00:18.575Z,57.41
2023-02-27T20:02:48.160Z,55.91
2023-02-27T20:05:16.419Z,55.60
2023-02-27T20:07:46.785Z,55.28
2023-02-27T20:10:15.628Z,55.67
2023-02-27T20:12:43.982Z,55.70
2023-02-27T20:15:12.760Z,56.23
2023-02-27T20:17:42.317Z,57.23
2023-02-27T20:20:13.309Z,57.15
2023-02-27T20:22:43.458Z,57.65
2023-02-27T20:25:12.732Z,56.09
2023-02-27T20:27:41.012Z,55.68
2023-02-27T20:30:10.624Z,56.57
2023-02-27T20:32:39.231Z,55.33
2023-02-27T20:35:08.467Z,55.79
2023-02-27T20:37:39.201Z,54.71
2023-02-27T20:40:09.975Z,55.62
2023-02-27T20:42:38.490Z,54.41
2023-02-27T20:45:07.743Z,57.45
2023-02-27T20:47:35.948Z,55.08
2023-02-27T20:50:04.232Z,56.00
2023-02-27T20:52:32.530Z,54.48
2023-02-27T20:55:02.091Z,55.46
2023-02-27T20:57:30.363Z,56.58
2023-02-27T20:59:58.566Z,56.44
2023-02-27T21:02:26.808Z,56.34
2023-02-27T21:04:57.446Z,56.80
2023-02-27T21:07:25.828Z,56.00
2023-02-27T21:09:54.011Z,57.46
2023-02-27T21:12:23.600Z,57.55
2023-02-27T21:14:51.812Z,59.51
2023-02-27T21:17:20.069Z,60.54
2023-02-27T21:19:48.290Z,60.98
2023-02-27T21:22:17.096Z,59.37
2023-02-27T21:24:46.768Z,60.53
2023-02-27T21:27:16.345Z,62.15
2023-02-27T21:29:45.929Z,63.97
2023-02-27T21:32:14.196Z,62.93
2023-02-27T21:34:42.453Z,61.39
2023-02-27T21:37:12.333Z,63.37
2023-02-27T21:39:41.045Z,62.54
2023-02-27T21:42:09.283Z,62.35
2023-02-27T21:44:37.568Z,61.55
2023-02-27T21:47:09.965Z,62.95
2023-02-27T21:49:39.176Z,60.61
2023-02-27T21:52:07.478Z,60.00
2023-02-27T21:54:35.899Z,61.57
2023-02-27T21:57:04.312Z,62.97
2023-02-27T21:59:32.799Z,61.29
2023-02-27T22:02:01.052Z,60.59
2023-02-27T22:04:30.603Z,58.11
2023-02-27T22:06:58.806Z,59.72
2023-02-27T22:09:27.061Z,59.59
2023-02-27T22:11:55.235Z,58.73
2023-02-27T22:14:24.653Z,59.53
2023-02-27T22:16:52.838Z,58.18
2023-02-27T22:19:22.566Z,57.45
2023-02-27T22:21:52.191Z,57.87
2023-02-27T22:24:20.598Z,58.81
2023-02-27T22:26:50.233Z,57.98
2023-02-27T22:29:18.458Z,56.76
2023-02-27T22:31:46.894Z,56.70
2023-02-27T22:34:18.460Z,56.92
2023-02-27T22:36:48.482Z,57.32
2023-02-27T22:39:18.064Z,56.55
2023-02-27T22:41:46.454Z,56.04
2023-02-27T22:44:16.002Z,54.63
2023-02-27T22:46:46.316Z,55.07
2023-02-27T22:49:17.848Z,55.96
2023-02-27T22:51:50.850Z,55.73
2023-02-27T22:54:21.922Z,55.64
2023-02-27T22:56:51.623Z,55.28
2023-02-27T22:59:20.164Z,56.04
2023-02-27T23:01:49.095Z,56.36
2023-02-27T23:04:18.070Z,57.02
2023-02-27T23:06:46.518Z,56.45
2023-02-27T23:09:16.241Z,57.12
2023-02-27T23:11:46.059Z,56.37
2023-02-27T23:14:14.956Z,58.39
2023-02-27T23:16:45.558Z,56.05
2023-02-27T23:19:15.445Z,56.62
2023-02-27T23:21:43.782Z,56.36
2023-02-27T23:24:14.380Z,57.06
2023-02-27T23:26:42.837Z,57.42
2023-02-27T23:29:12.432Z,58.30
2023-02-27T23:31:42.224Z,59.02
2023-02-27T23:34:10.820Z,58.27
2023-02-27T23:36:39.501Z,59.57
2023-02-27T23:39:08.889Z,57.74
2023-02-27T23:41:37.365Z,56.51
2023-02-27T23:44:05.702Z,57.99
2023-02-27T23:46:35.351Z,57.44
2023-02-27T23:49:04.092Z,59.11
2023-02-27T23:51:33.423Z,61.06
2023-02-27T23:54:02.038Z,62.79
2023-02-27T23:56:31.875Z,61.82
2023-02-27T23:59:02.723Z,60.98
